Time;durP1;ratioP1;P1;durP2;ratioP2;P2;SDS_P1;SDS_P2;PMS_P1;PMS_P2;Temp;Humidity;BMP_temperature;BMP_pressure;BME280_temperature;BME280_humidity;BME280_pressure;Samples;Min_cycle;Max_cycle;Signal;HPM_P1;HPM_P2
2021/04/14 00:01:28;;;;;;;4.90;2.33;;;;;;;;;;5094141;28;20204;-63
2021/04/14 00:03:55;;;;;;;4.45;2.30;;;;;;;;;;5094054;28;20211;-62
2021/04/14 00:06:21;;;;;;;6.65;2.28;;;;;;;;;;5094471;28;20228;-62
2021/04/14 00:08:48;;;;;;;5.80;2.65;;;;;;;;;;5097431;28;20219;-63
2021/04/14 00:11:17;;;;;;;6.18;2.55;;;;;;;;;;5099832;28;20200;-61
2021/04/14 00:13:44;;;;;;;4.60;2.50;;;;;;;;;;5102136;28;20200;-63
2021/04/14 00:16:13;;;;;;;4.15;2.42;;;;;;;;;;5098330;28;20238;-63
2021/04/14 00:18:40;;;;;;;4.30;1.80;;;;;;;;;;5097242;28;20204;-62
2021/04/14 00:21:06;;;;;;;4.80;2.35;;;;;;;;;;5097114;28;20196;-62
2021/04/14 00:23:33;;;;;;;4.15;1.80;;;;;;;;;;5097339;28;20211;-62
2021/04/14 00:26:00;;;;;;;5.43;2.08;;;;;;;;;;5099298;28;20220;-62
2021/04/14 00:28:28;;;;;;;8.48;2.80;;;;;;;;;;5100068;28;20606;-62
2021/04/14 00:30:55;;;;;;;8.30;2.15;;;;;;;;;;5100600;28;20216;-63
2021/04/14 00:33:22;;;;;;;3.10;2.08;;;;;;;;;;5099013;28;20729;-63
2021/04/14 00:35:49;;;;;;;8.73;2.63;;;;;;;;;;5111710;28;20246;-63
2021/04/14 00:38:18;;;;;;;5.60;2.95;;;;;;;;;;5100602;28;20207;-63
2021/04/14 00:40:46;;;;;;;5.28;2.53;;;;;;;;;;5098681;28;20660;-62
2021/04/14 00:43:14;;;;;;;5.82;2.30;;;;;;;;;;5098028;28;20200;-62
2021/04/14 00:45:42;;;;;;;10.20;2.47;;;;;;;;;;5099099;28;20220;-62
2021/04/14 00:48:09;;;;;;;5.45;2.30;;;;;;;;;;5098048;28;20220;-63
2021/04/14 00:50:36;;;;;;;5.45;2.70;;;;;;;;;;5105509;28;20204;-63
2021/04/14 00:53:03;;;;;;;4.53;2.20;;;;;;;;;;5108067;28;20208;-62
2021/04/14 00:55:30;;;;;;;5.75;2.30;;;;;;;;;;5107460;28;20220;-62
2021/04/14 00:57:57;;;;;;;2.30;2.03;;;;;;;;;;5111294;28;20222;-63
2021/04/14 01:00:29;;;;;;;2.72;2.47;;;;;;;;;;5113107;28;20203;-62
2021/04/14 01:02:57;;;;;;;5.35;2.95;;;;;;;;;;5100129;28;20181;-62
2021/04/14 01:05:25;;;;;;;4.63;2.53;;;;;;;;;;5098603;28;20228;-62
2021/04/14 01:07:53;;;;;;;3.50;1.90;;;;;;;;;;5097126;28;20212;-62
2021/04/14 01:10:20;;;;;;;5.47;2.50;;;;;;;;;;5097217;28;20270;-62
2021/04/14 01:12:47;;;;;;;3.13;2.35;;;;;;;;;;5096920;28;20215;-63
2021/04/14 01:15:16;;;;;;;8.43;2.95;;;;;;;;;;5099981;28;20224;-62
2021/04/14 01:17:43;;;;;;;8.05;2.70;;;;;;;;;;5110745;28;20208;-63
2021/04/14 01:20:10;;;;;;;6.22;2.53;;;;;;;;;;5112013;28;20211;-62
2021/04/14 01:22:38;;;;;;;5.97;2.83;;;;;;;;;;5111532;28;20679;-62
2021/04/14 01:25:06;;;;;;;4.47;2.67;;;;;;;;;;5109383;28;20219;-63
2021/04/14 01:27:32;;;;;;;7.65;2.85;;;;;;;;;;5107634;28;20204;-63
2021/04/14 01:29:59;;;;;;;5.35;2.70;;;;;;;;;;5107362;28;20220;-63
2021/04/14 01:32:29;;;;;;;4.72;2.72;;;;;;;;;;5107258;28;20282;-62
2021/04/14 01:34:56;;;;;;;8.55;2.78;;;;;;;;;;5106841;28;20723;-62
2021/04/14 01:37:22;;;;;;;7.50;2.50;;;;;;;;;;5107440;28;20238;-62
2021/04/14 01:39:50;;;;;;;4.40;2.72;;;;;;;;;;5107627;28;20200;-63
2021/04/14 01:42:17;;;;;;;3.15;2.47;;;;;;;;;;5106898;28;20584;-62
2021/04/14 01:44:44;;;;;;;2.55;2.25;;;;;;;;;;5106100;28;20625;-63
2021/04/14 01:47:10;;;;;;;6.70;2.67;;;;;;;;;;5106537;28;20200;-63
2021/04/14 01:49:37;;;;;;;10.35;2.72;;;;;;;;;;5107513;28;20216;-62
2021/04/14 01:52:04;;;;;;;8.60;2.72;;;;;;;;;;5109345;28;20222;-62
2021/04/14 01:54:31;;;;;;;5.28;2.75;;;;;;;;;;5108872;28;20207;-63
2021/04/14 01:56:58;;;;;;;6.13;3.10;;;;;;;;;;5107848;28;20196;-63
2021/04/14 01:59:25;;;;;;;4.03;2.35;;;;;;;;;;5106678;28;20192;-63
2021/04/14 02:01:52;;;;;;;6.50;2.85;;;;;;;;;;5099290;28;20212;-61
2021/04/14 02:04:19;;;;;;;4.68;2.80;;;;;;;;;;5098589;28;20204;-62
2021/04/14 02:06:45;;;;;;;5.63;3.15;;;;;;;;;;5098191;28;20619;-61
2021/04/14 02:09:13;;;;;;;6.15;2.97;;;;;;;;;;5097086;28;20692;-62
2021/04/14 02:11:40;;;;;;;4.75;2.40;;;;;;;;;;5097071;28;20199;-62
2021/04/14 02:14:09;;;;;;;6.72;3.22;;;;;;;;;;5097536;28;20200;-63
2021/04/14 02:16:36;;;;;;;4.25;2.80;;;;;;;;;;5099215;28;20224;-62
2021/04/14 02:19:04;;;;;;;8.85;3.13;;;;;;;;;;5097644;28;20208;-63
2021/04/14 02:21:31;;;;;;;5.57;3.60;;;;;;;;;;5096096;28;20196;-63
2021/04/14 02:23:57;;;;;;;3.25;2.30;;;;;;;;;;5099808;28;20208;-62
2021/04/14 02:26:25;;;;;;;10.38;3.78;;;;;;;;;;5109845;28;20223;-62
2021/04/14 02:28:52;;;;;;;6.72;2.92;;;;;;;;;;5097288;28;20226;-63
2021/04/14 02:31:29;;;;;;;5.35;2.95;;;;;;;;;;5096930;28;20284;-63
2021/04/14 02:33:56;;;;;;;4.05;2.85;;;;;;;;;;5095552;28;20202;-64
2021/04/14 02:36:23;;;;;;;3.78;2.70;;;;;;;;;;5095544;28;20598;-63
2021/04/14 02:38:50;;;;;;;4.70;3.00;;;;;;;;;;5095435;28;20195;-62
2021/04/14 02:41:17;;;;;;;5.22;3.30;;;;;;;;;;5095521;28;20204;-62
2021/04/14 02:43:44;;;;;;;4.20;2.90;;;;;;;;;;5096682;28;20211;-63
2021/04/14 02:46:10;;;;;;;5.82;3.35;;;;;;;;;;5094364;28;20269;-63
2021/04/14 02:48:38;;;;;;;5.43;2.53;;;;;;;;;;5094517;28;20220;-63
2021/04/14 02:51:05;;;;;;;7.15;3.30;;;;;;;;;;5095557;28;20273;-62
2021/04/14 02:53:32;;;;;;;6.38;3.47;;;;;;;;;;5095375;28;20272;-61
2021/04/14 02:55:59;;;;;;;5.15;2.70;;;;;;;;;;5095335;28;20231;-63
2021/04/14 02:58:25;;;;;;;6.70;3.38;;;;;;;;;;5095272;28;20196;-62
2021/04/14 03:00:52;;;;;;;5.20;3.55;;;;;;;;;;5095282;28;20211;-63
2021/04/14 03:03:19;;;;;;;5.82;3.25;;;;;;;;;;5094940;28;20621;-63
2021/04/14 03:05:47;;;;;;;5.93;2.97;;;;;;;;;;5095006;28;20224;-62
2021/04/14 03:08:13;;;;;;;4.30;2.85;;;;;;;;;;5095025;28;20208;-62
2021/04/14 03:10:40;;;;;;;7.70;3.42;;;;;;;;;;5094906;28;20205;-62
2021/04/14 03:13:07;;;;;;;5.47;3.03;;;;;;;;;;5094979;28;20234;-62
2021/04/14 03:15:36;;;;;;;3.20;2.80;;;;;;;;;;5094648;28;20277;-62
2021/04/14 03:18:03;;;;;;;7.43;2.70;;;;;;;;;;5095453;28;20204;-62
2021/04/14 03:20:30;;;;;;;12.02;3.72;;;;;;;;;;5095027;28;20207;-61
2021/04/14 03:22:58;;;;;;;8.38;3.38;;;;;;;;;;5094925;28;20200;-62
2021/04/14 03:25:25;;;;;;;5.55;2.95;;;;;;;;;;5094533;28;20219;-62
2021/04/14 03:27:52;;;;;;;4.05;2.75;;;;;;;;;;5094328;28;20196;-63
2021/04/14 03:30:19;;;;;;;5.13;3.35;;;;;;;;;;5094586;28;20200;-62
2021/04/14 03:32:46;;;;;;;4.80;3.20;;;;;;;;;;5094679;28;20200;-62
2021/04/14 03:35:14;;;;;;;6.13;3.72;;;;;;;;;;5094250;28;20224;-62
2021/04/14 03:37:41;;;;;;;4.82;3.90;;;;;;;;;;5094551;28;20196;-63
2021/04/14 03:40:09;;;;;;;10.23;3.38;;;;;;;;;;5094722;28;20554;-63
2021/04/14 03:42:36;;;;;;;4.35;3.22;;;;;;;;;;5094191;28;20203;-63
2021/04/14 03:45:10;;;;;;;4.32;3.05;;;;;;;;;;5094352;28;20289;-63
2021/04/14 03:47:37;;;;;;;6.30;4.10;;;;;;;;;;5094762;28;20180;-63
2021/04/14 03:50:04;;;;;;;5.20;3.90;;;;;;;;;;5094182;28;20382;-62
2021/04/14 03:52:31;;;;;;;5.88;3.60;;;;;;;;;;5095163;28;20200;-63
2021/04/14 03:54:57;;;;;;;4.80;3.42;;;;;;;;;;5096769;28;20242;-62
2021/04/14 03:57:25;;;;;;;7.00;3.63;;;;;;;;;;5096842;28;20572;-62
2021/04/14 03:59:52;;;;;;;4.47;3.78;;;;;;;;;;5095626;28;20195;-64
2021/04/14 04:02:18;;;;;;;6.05;3.50;;;;;;;;;;5094811;28;20196;-62
2021/04/14 04:08:00;;;;;;;6.68;3.92;;;;;;;;;;5114102;27;20597;-63
2021/04/14 04:10:27;;;;;;;3.83;3.20;;;;;;;;;;5118980;28;20256;-62
2021/04/14 04:12:56;;;;;;;7.32;4.93;;;;;;;;;;5120843;28;20252;-62
2021/04/14 04:15:23;;;;;;;5.97;4.07;;;;;;;;;;5124786;28;20223;-63
2021/04/14 04:17:49;;;;;;;8.38;4.10;;;;;;;;;;5118908;28;20207;-63
2021/04/14 04:20:16;;;;;;;6.75;4.72;;;;;;;;;;5115414;28;20199;-63
2021/04/14 04:22:43;;;;;;;6.32;4.85;;;;;;;;;;5119479;28;20208;-63
2021/04/14 04:25:11;;;;;;;6.47;4.20;;;;;;;;;;5115757;28;20215;-63
2021/04/14 04:27:38;;;;;;;7.90;4.40;;;;;;;;;;5114278;28;20219;-62
2021/04/14 04:30:06;;;;;;;8.23;3.95;;;;;;;;;;5116050;28;20304;-62
2021/04/14 04:32:33;;;;;;;4.95;3.60;;;;;;;;;;5114484;28;20207;-63
2021/04/14 04:35:00;;;;;;;13.15;5.88;;;;;;;;;;5112303;28;20227;-62
2021/04/14 04:37:27;;;;;;;4.05;3.63;;;;;;;;;;5111795;28;20594;-62
2021/04/14 04:39:54;;;;;;;7.72;4.25;;;;;;;;;;5112181;28;20248;-63
2021/04/14 04:42:21;;;;;;;8.82;4.20;;;;;;;;;;5111332;28;20211;-62
2021/04/14 04:44:48;;;;;;;8.73;4.57;;;;;;;;;;5111131;28;20654;-62
2021/04/14 04:47:15;;;;;;;4.35;3.47;;;;;;;;;;5111257;28;20238;-63
2021/04/14 04:49:41;;;;;;;9.13;4.57;;;;;;;;;;5111938;28;20208;-62
2021/04/14 04:52:08;;;;;;;7.78;3.85;;;;;;;;;;5113360;28;20199;-62
2021/04/14 04:54:35;;;;;;;5.75;3.90;;;;;;;;;;5114960;28;20215;-63
2021/04/14 04:57:02;;;;;;;7.93;4.13;;;;;;;;;;5113750;28;20200;-63
2021/04/14 04:59:30;;;;;;;6.28;3.92;;;;;;;;;;5116562;28;20203;-62
2021/04/14 05:01:58;;;;;;;8.60;4.68;;;;;;;;;;5114090;28;20678;-63
2021/04/14 05:04:25;;;;;;;5.03;4.35;;;;;;;;;;5110621;28;20252;-63
2021/04/14 05:06:52;;;;;;;8.05;4.40;;;;;;;;;;5110205;28;20643;-64
2021/04/14 05:09:19;;;;;;;5.82;4.10;;;;;;;;;;5110292;28;20249;-63
2021/04/14 05:11:47;;;;;;;12.85;5.38;;;;;;;;;;5110166;28;20694;-62
2021/04/14 05:14:13;;;;;;;7.43;4.00;;;;;;;;;;5110310;28;20210;-63
2021/04/14 05:16:41;;;;;;;6.85;4.25;;;;;;;;;;5110511;28;20202;-63
2021/04/14 05:19:08;;;;;;;6.10;3.60;;;;;;;;;;5097972;28;20638;-63
2021/04/14 05:21:36;;;;;;;8.95;3.45;;;;;;;;;;5097539;28;20671;-61
2021/04/14 05:24:03;;;;;;;6.25;4.30;;;;;;;;;;5096957;28;20204;-63
2021/04/14 05:26:29;;;;;;;5.80;4.07;;;;;;;;;;5096533;28;20216;-62
2021/04/14 05:28:56;;;;;;;7.32;3.92;;;;;;;;;;5096196;28;20739;-62
2021/04/14 05:31:29;;;;;;;5.15;3.83;;;;;;;;;;5098008;28;20208;-62
2021/04/14 05:33:56;;;;;;;7.30;3.95;;;;;;;;;;5098513;28;20181;-63
2021/04/14 05:36:23;;;;;;;7.55;4.85;;;;;;;;;;5097863;28;20223;-63
2021/04/14 05:38:50;;;;;;;11.43;4.55;;;;;;;;;;5099397;28;20227;-62
2021/04/14 05:41:17;;;;;;;6.30;4.07;;;;;;;;;;5102223;28;20270;-62
2021/04/14 05:43:44;;;;;;;6.78;4.05;;;;;;;;;;5098700;28;20204;-63
2021/04/14 05:46:12;;;;;;;6.43;3.78;;;;;;;;;;5097313;28;20246;-62
2021/04/14 05:48:39;;;;;;;6.72;3.45;;;;;;;;;;5106032;28;20286;-63
2021/04/14 05:51:07;;;;;;;4.22;3.78;;;;;;;;;;5110062;28;20600;-62
2021/04/14 05:53:35;;;;;;;8.23;3.95;;;;;;;;;;5108661;28;20199;-63
2021/04/14 05:56:02;;;;;;;7.03;3.80;;;;;;;;;;5108558;28;20232;-63
2021/04/14 05:58:29;;;;;;;4.95;4.25;;;;;;;;;;5107623;28;20211;-63
2021/04/14 06:00:56;;;;;;;4.95;3.88;;;;;;;;;;5108496;28;20204;-63
2021/04/14 06:03:23;;;;;;;8.60;4.25;;;;;;;;;;5108510;28;20200;-62
2021/04/14 06:05:52;;;;;;;6.57;3.33;;;;;;;;;;5108047;28;20279;-63
2021/04/14 06:08:20;;;;;;;8.80;4.00;;;;;;;;;;5102953;28;20202;-63
2021/04/14 06:10:47;;;;;;;13.27;4.05;;;;;;;;;;5108066;28;20211;-61
2021/04/14 06:13:13;;;;;;;9.48;3.58;;;;;;;;;;5108587;28;20211;-63
2021/04/14 06:15:40;;;;;;;8.93;3.58;;;;;;;;;;5110102;28;20232;-63
2021/04/14 06:18:07;;;;;;;5.55;3.90;;;;;;;;;;5108910;28;20200;-63
2021/04/14 06:20:35;;;;;;;5.30;3.40;;;;;;;;;;5109307;28;20200;-62
2021/04/14 06:23:03;;;;;;;6.72;3.50;;;;;;;;;;5106089;28;20215;-62
2021/04/14 06:25:35;;;;;;;8.32;3.28;;;;;;;;;;5106512;28;20306;-62
2021/04/14 06:28:04;;;;;;;8.38;3.40;;;;;;;;;;5106930;28;20216;-63
2021/04/14 06:30:31;;;;;;;6.00;3.38;;;;;;;;;;5105155;28;20369;-62
2021/04/14 06:32:58;;;;;;;4.95;3.03;;;;;;;;;;5106307;28;20257;-64
2021/04/14 06:35:25;;;;;;;7.05;3.28;;;;;;;;;;5107884;28;20231;-60
2021/04/14 06:37:51;;;;;;;5.70;3.03;;;;;;;;;;5108429;28;20220;-63
2021/04/14 06:40:37;;;;;;;4.45;3.40;;;;;;;;;;5108544;28;20602;-63
2021/04/14 06:43:12;;;;;;;4.38;3.60;;;;;;;;;;5106960;28;20214;-62
2021/04/14 06:45:41;;;;;;;6.22;2.95;;;;;;;;;;5106440;28;20224;-63
2021/04/14 06:48:10;;;;;;;5.78;3.15;;;;;;;;;;5107197;28;20220;-62
2021/04/14 06:50:40;;;;;;;4.32;3.30;;;;;;;;;;5104371;28;20204;-63
2021/04/14 06:53:11;;;;;;;3.03;2.58;;;;;;;;;;5103789;28;20200;-63
2021/04/14 06:55:41;;;;;;;3.90;3.10;;;;;;;;;;5102068;28;20235;-63
2021/04/14 06:58:11;;;;;;;3.78;3.17;;;;;;;;;;5106237;28;20196;-63
2021/04/14 07:00:39;;;;;;;5.18;3.40;;;;;;;;;;5108275;28;20206;-63
2021/04/14 07:03:07;;;;;;;4.15;2.92;;;;;;;;;;5107942;28;20257;-63
2021/04/14 07:05:36;;;;;;;8.68;4.03;;;;;;;;;;5106574;28;20242;-63
2021/04/14 07:08:04;;;;;;;7.88;3.90;;;;;;;;;;5107577;28;20204;-63
2021/04/14 07:10:32;;;;;;;5.85;3.35;;;;;;;;;;5107153;28;20226;-63
2021/04/14 07:13:01;;;;;;;8.20;3.80;;;;;;;;;;5107293;28;20200;-63
2021/04/14 07:15:29;;;;;;;5.15;3.65;;;;;;;;;;5107790;28;20723;-63
2021/04/14 07:18:02;;;;;;;5.75;2.90;;;;;;;;;;5095886;28;20692;-62
2021/04/14 07:20:34;;;;;;;7.13;3.88;;;;;;;;;;5096089;28;20523;-62
2021/04/14 07:23:06;;;;;;;8.02;3.88;;;;;;;;;;5095143;28;20235;-62
2021/04/14 07:25:37;;;;;;;8.70;3.35;;;;;;;;;;5094712;28;20277;-63
2021/04/14 07:28:10;;;;;;;5.88;3.92;;;;;;;;;;5094887;28;20211;-63
2021/04/14 07:30:40;;;;;;;5.45;3.00;;;;;;;;;;5095016;28;20234;-63
2021/04/14 07:33:13;;;;;;;12.52;3.80;;;;;;;;;;5094832;28;20188;-63
2021/04/14 07:35:42;;;;;;;2.92;2.35;;;;;;;;;;5094776;28;20243;-63
2021/04/14 07:38:11;;;;;;;8.13;3.15;;;;;;;;;;5094491;28;20192;-62
2021/04/14 07:40:41;;;;;;;7.28;3.20;;;;;;;;;;5094379;28;20196;-62
2021/04/14 07:43:13;;;;;;;6.53;3.38;;;;;;;;;;5094706;28;20242;-63
2021/04/14 07:45:41;;;;;;;5.85;3.20;;;;;;;;;;5094608;28;20224;-64
2021/04/14 07:48:09;;;;;;;7.03;3.90;;;;;;;;;;5094268;28;20216;-63
2021/04/14 07:50:38;;;;;;;9.88;3.50;;;;;;;;;;5096752;28;20208;-63
2021/04/14 07:53:15;;;;;;;5.82;3.20;;;;;;;;;;5094420;28;20195;-63
2021/04/14 07:55:42;;;;;;;5.30;3.35;;;;;;;;;;5094324;28;20227;-62
2021/04/14 07:58:10;;;;;;;6.95;3.53;;;;;;;;;;5094368;28;20203;-64
2021/04/14 08:00:38;;;;;;;5.68;3.10;;;;;;;;;;5094017;28;20623;-64
2021/04/14 08:03:10;;;;;;;5.30;3.38;;;;;;;;;;5094322;28;20200;-63
2021/04/14 08:05:36;;;;;;;12.77;3.53;;;;;;;;;;5094334;28;20242;-63
2021/04/14 08:08:13;;;;;;;13.90;3.83;;;;;;;;;;5094130;28;20205;-63
2021/04/14 08:10:40;;;;;;;7.00;3.55;;;;;;;;;;5093904;28;20209;-64
2021/04/14 08:13:08;;;;;;;5.90;3.80;;;;;;;;;;5093777;28;20200;-63
2021/04/14 08:15:39;;;;;;;7.13;3.40;;;;;;;;;;5093586;28;20267;-63
2021/04/14 08:18:11;;;;;;;7.75;3.10;;;;;;;;;;5093841;28;20275;-62
2021/04/14 08:20:39;;;;;;;10.00;3.90;;;;;;;;;;5093984;28;20212;-63
2021/04/14 08:23:07;;;;;;;8.43;3.00;;;;;;;;;;5093887;28;20200;-63
2021/04/14 08:25:34;;;;;;;5.13;3.10;;;;;;;;;;5094044;28;20216;-63
2021/04/14 08:28:01;;;;;;;5.70;3.17;;;;;;;;;;5094800;28;20285;-63
2021/04/14 08:30:29;;;;;;;5.95;3.22;;;;;;;;;;5094999;28;20223;-63
2021/04/14 08:33:00;;;;;;;6.40;2.78;;;;;;;;;;5094903;28;20196;-64
2021/04/14 08:35:29;;;;;;;11.93;3.80;;;;;;;;;;5094820;28;20220;-63
2021/04/14 08:38:03;;;;;;;5.90;2.35;;;;;;;;;;5094872;28;20196;-63
2021/04/14 08:40:30;;;;;;;5.70;2.40;;;;;;;;;;5094100;28;20200;-63
2021/04/14 08:42:58;;;;;;;4.90;2.45;;;;;;;;;;5094391;28;20253;-63
2021/04/14 08:45:29;;;;;;;8.18;2.25;;;;;;;;;;5095681;28;20220;-63
2021/04/14 08:48:03;;;;;;;2.30;1.98;;;;;;;;;;5095648;28;20311;-63
2021/04/14 08:50:32;;;;;;;4.15;2.50;;;;;;;;;;5094800;28;20633;-63
2021/04/14 08:53:00;;;;;;;7.18;2.88;;;;;;;;;;5094151;28;20197;-63
2021/04/14 08:55:28;;;;;;;4.57;2.45;;;;;;;;;;5097665;28;20644;-64
2021/04/14 08:57:56;;;;;;;6.97;2.40;;;;;;;;;;5097545;28;20253;-63
2021/04/14 09:00:24;;;;;;;4.65;2.60;;;;;;;;;;5097087;28;20200;-62
2021/04/14 09:02:52;;;;;;;4.10;2.60;;;;;;;;;;5096878;28;20234;-63
2021/04/14 09:05:21;;;;;;;7.53;2.97;;;;;;;;;;5097226;28;20321;-64
2021/04/14 09:07:49;;;;;;;4.25;1.95;;;;;;;;;;5096989;28;20707;-64
2021/04/14 09:10:27;;;;;;;7.18;2.40;;;;;;;;;;5096644;28;20211;-64
2021/04/14 09:12:56;;;;;;;3.10;2.10;;;;;;;;;;5096997;28;20544;-63
2021/04/14 09:15:23;;;;;;;6.90;2.75;;;;;;;;;;5096850;28;20220;-63
2021/04/14 09:17:57;;;;;;;5.40;2.17;;;;;;;;;;5096261;28;20539;-63
2021/04/14 09:20:25;;;;;;;6.20;2.13;;;;;;;;;;5096337;28;20543;-63
2021/04/14 09:23:03;;;;;;;9.40;2.60;;;;;;;;;;5096622;28;20200;-63
2021/04/14 09:25:31;;;;;;;3.15;2.60;;;;;;;;;;5096647;28;20215;-64
2021/04/14 09:28:00;;;;;;;4.43;2.00;;;;;;;;;;5096615;28;20228;-64
2021/04/14 09:30:32;;;;;;;4.72;2.25;;;;;;;;;;5096914;28;20226;-64
2021/04/14 09:33:00;;;;;;;5.55;2.35;;;;;;;;;;5096535;28;20204;-63
2021/04/14 09:35:41;;;;;;;3.50;1.88;;;;;;;;;;5096559;28;20246;-63
2021/04/14 09:38:14;;;;;;;5.63;2.00;;;;;;;;;;5096169;28;20196;-63
2021/04/14 09:40:41;;;;;;;4.85;2.40;;;;;;;;;;5096727;28;20189;-63
2021/04/14 09:43:31;;;;;;;4.50;2.67;;;;;;;;;;5096575;28;20196;-63
2021/04/14 09:45:59;;;;;;;6.57;2.92;;;;;;;;;;5096428;28;20273;-62
2021/04/14 09:48:37;;;;;;;4.38;2.22;;;;;;;;;;5096169;28;20203;-63
2021/04/14 09:51:04;;;;;;;4.10;2.85;;;;;;;;;;5096375;28;20236;-64
2021/04/14 09:53:37;;;;;;;4.85;3.00;;;;;;;;;;5096082;28;20197;-63
2021/04/14 09:56:08;;;;;;;3.80;2.47;;;;;;;;;;5095974;28;20704;-61
2021/04/14 09:58:36;;;;;;;6.22;2.90;;;;;;;;;;5097442;28;20222;-64
2021/04/14 10:01:10;;;;;;;4.03;3.35;;;;;;;;;;5098696;28;20325;-63
2021/04/14 10:03:41;;;;;;;9.73;3.47;;;;;;;;;;5110061;28;20183;-63
2021/04/14 10:06:10;;;;;;;4.93;2.75;;;;;;;;;;5111730;28;20228;-63
2021/04/14 10:08:38;;;;;;;7.18;3.00;;;;;;;;;;5111521;28;20200;-63
2021/04/14 10:11:05;;;;;;;6.38;3.00;;;;;;;;;;5111714;28;20204;-63
2021/04/14 10:13:33;;;;;;;5.28;2.70;;;;;;;;;;5108991;28;20208;-64
2021/04/14 10:16:00;;;;;;;3.90;2.33;;;;;;;;;;5101394;28;20220;-64
2021/04/14 10:18:29;;;;;;;3.38;2.20;;;;;;;;;;5096555;28;20200;-62
2021/04/14 10:20:56;;;;;;;4.60;2.35;;;;;;;;;;5098278;28;20204;-61
2021/04/14 10:23:24;;;;;;;5.25;2.00;;;;;;;;;;5096434;28;20211;-63
2021/04/14 10:26:02;;;;;;;4.78;2.10;;;;;;;;;;5096170;28;20220;-62
2021/04/14 10:28:29;;;;;;;3.55;1.33;;;;;;;;;;5095578;28;20265;-63
2021/04/14 10:31:04;;;;;;;6.05;1.88;;;;;;;;;;5095258;28;20561;-63
2021/04/14 10:33:30;;;;;;;5.05;1.33;;;;;;;;;;5096403;28;20180;-63
2021/04/14 10:36:08;;;;;;;3.15;1.30;;;;;;;;;;5095418;28;20216;-63
2021/04/14 10:38:36;;;;;;;6.15;1.75;;;;;;;;;;5095863;28;20184;-63
2021/04/14 10:41:13;;;;;;;3.92;1.40;;;;;;;;;;5095760;28;20672;-63
2021/04/14 10:43:40;;;;;;;1.90;1.40;;;;;;;;;;5097366;28;20647;-63
2021/04/14 10:46:10;;;;;;;3.10;1.70;;;;;;;;;;5096815;28;20660;-64
2021/04/14 10:48:38;;;;;;;9.32;1.73;;;;;;;;;;5097214;28;20199;-64
2021/04/14 10:51:06;;;;;;;2.42;1.85;;;;;;;;;;5095697;28;20580;-63
2021/04/14 10:53:35;;;;;;;9.50;1.73;;;;;;;;;;5095014;28;20196;-63
2021/04/14 10:56:02;;;;;;;3.88;1.30;;;;;;;;;;5094996;28;20216;-63
2021/04/14 10:58:31;;;;;;;5.55;1.92;;;;;;;;;;5095801;28;20616;-64
2021/04/14 11:00:57;;;;;;;5.05;1.40;;;;;;;;;;5095683;28;20200;-63
2021/04/14 11:03:26;;;;;;;2.90;1.30;;;;;;;;;;5095027;28;20227;-62
2021/04/14 11:05:55;;;;;;;2.85;1.40;;;;;;;;;;5095185;28;20609;-64
2021/04/14 11:08:22;;;;;;;2.72;1.63;;;;;;;;;;5096716;28;20231;-65
2021/04/14 11:10:50;;;;;;;3.50;1.70;;;;;;;;;;5095915;28;20200;-64
2021/04/14 11:13:18;;;;;;;4.33;2.13;;;;;;;;;;5096065;28;20522;-64
2021/04/14 11:15:47;;;;;;;4.67;1.60;;;;;;;;;;5095581;28;20462;-64
2021/04/14 11:18:15;;;;;;;2.47;1.50;;;;;;;;;;5096375;28;20442;-63
2021/04/14 11:20:44;;;;;;;3.75;1.60;;;;;;;;;;5095788;28;20515;-63
2021/04/14 11:23:19;;;;;;;4.00;2.10;;;;;;;;;;5094873;28;20210;-64
2021/04/14 11:25:45;;;;;;;3.47;1.50;;;;;;;;;;5094839;28;20219;-63
2021/04/14 11:28:14;;;;;;;2.55;1.60;;;;;;;;;;5094767;28;20220;-63
2021/04/14 11:30:49;;;;;;;2.42;1.70;;;;;;;;;;5095144;28;20196;-63
2021/04/14 11:33:17;;;;;;;3.15;1.48;;;;;;;;;;5095412;28;20241;-64
2021/04/14 11:35:45;;;;;;;3.30;1.55;;;;;;;;;;5095099;28;20623;-62
2021/04/14 11:38:26;;;;;;;1.90;1.50;;;;;;;;;;5094854;28;20203;-63
2021/04/14 11:40:53;;;;;;;4.55;1.85;;;;;;;;;;5095610;28;20203;-63
2021/04/14 11:43:25;;;;;;;3.92;1.63;;;;;;;;;;5094805;28;20203;-64
2021/04/14 11:45:57;;;;;;;3.95;1.60;;;;;;;;;;5094747;28;20220;-64
2021/04/14 11:48:30;;;;;;;3.07;1.40;;;;;;;;;;5094118;28;20632;-63
2021/04/14 11:50:57;;;;;;;4.28;1.92;;;;;;;;;;5093899;28;20438;-63
2021/04/14 11:53:25;;;;;;;2.83;1.20;;;;;;;;;;5093171;28;20616;-63
2021/04/14 11:55:52;;;;;;;3.50;1.80;;;;;;;;;;5093969;28;20508;-63
2021/04/14 11:58:23;;;;;;;5.30;1.77;;;;;;;;;;5094907;28;20442;-64
2021/04/14 12:00:50;;;;;;;2.27;2.00;;;;;;;;;;5094301;28;20446;-63
2021/04/14 12:03:29;;;;;;;5.00;1.80;;;;;;;;;;5094359;28;20442;-63
2021/04/14 12:05:57;;;;;;;2.67;1.88;;;;;;;;;;5093530;28;20481;-62
2021/04/14 12:08:24;;;;;;;3.00;1.50;;;;;;;;;;5093589;28;20676;-63
2021/04/14 12:10:51;;;;;;;3.72;1.70;;;;;;;;;;5094095;28;20227;-63
2021/04/14 12:13:17;;;;;;;3.25;1.88;;;;;;;;;;5093638;28;20204;-61
2021/04/14 12:15:44;;;;;;;4.28;2.15;;;;;;;;;;5093341;28;20224;-63
2021/04/14 12:18:11;;;;;;;4.50;2.00;;;;;;;;;;5094206;28;20199;-62
2021/04/14 12:20:39;;;;;;;5.40;2.10;;;;;;;;;;5093927;28;20200;-62
2021/04/14 12:23:05;;;;;;;3.30;1.63;;;;;;;;;;5094077;28;20229;-62
2021/04/14 12:25:32;;;;;;;4.60;1.95;;;;;;;;;;5094230;28;20234;-63
2021/04/14 12:27:59;;;;;;;3.40;1.65;;;;;;;;;;5094869;28;20222;-63
2021/04/14 12:30:27;;;;;;;3.25;1.75;;;;;;;;;;5098344;28;20203;-62
2021/04/14 12:32:54;;;;;;;2.72;2.03;;;;;;;;;;5098743;28;20200;-61
2021/04/14 12:35:21;;;;;;;4.55;1.90;;;;;;;;;;5098781;28;20223;-61
2021/04/14 12:37:50;;;;;;;3.63;2.00;;;;;;;;;;5098745;28;20205;-62
2021/04/14 12:40:17;;;;;;;2.95;2.40;;;;;;;;;;5098916;28;20203;-63
2021/04/14 12:42:44;;;;;;;2.15;1.70;;;;;;;;;;5099180;28;20211;-61
2021/04/14 12:45:22;;;;;;;3.33;1.90;;;;;;;;;;5099449;28;20227;-62
2021/04/14 12:47:49;;;;;;;5.70;1.92;;;;;;;;;;5099115;28;20216;-62
2021/04/14 12:50:16;;;;;;;5.40;1.77;;;;;;;;;;5099320;28;20253;-62
2021/04/14 12:52:45;;;;;;;5.05;1.55;;;;;;;;;;5098342;28;20200;-63
2021/04/14 12:55:14;;;;;;;3.63;1.40;;;;;;;;;;5099268;28;20228;-61
2021/04/14 12:57:41;;;;;;;3.90;1.52;;;;;;;;;;5098612;28;20224;-62
2021/04/14 13:00:09;;;;;;;2.47;1.63;;;;;;;;;;5099550;28;20204;-62
2021/04/14 13:02:39;;;;;;;3.92;1.48;;;;;;;;;;5098248;28;20200;-62
2021/04/14 13:05:10;;;;;;;1.80;1.70;;;;;;;;;;5097673;28;20589;-62
2021/04/14 13:07:39;;;;;;;3.30;1.77;;;;;;;;;;5097907;28;20216;-63
2021/04/14 13:10:09;;;;;;;1.83;1.30;;;;;;;;;;5097892;28;20231;-63
2021/04/14 13:12:37;;;;;;;3.13;1.58;;;;;;;;;;5096930;28;20200;-62
2021/04/14 13:15:05;;;;;;;4.75;1.75;;;;;;;;;;5097389;28;20314;-64
2021/04/14 13:17:34;;;;;;;3.40;2.10;;;;;;;;;;5097402;28;20204;-63
2021/04/14 13:20:02;;;;;;;2.58;2.05;;;;;;;;;;5097319;28;20200;-63
2021/04/14 13:22:34;;;;;;;3.90;1.63;;;;;;;;;;5097529;28;20204;-63
2021/04/14 13:25:05;;;;;;;2.20;2.00;;;;;;;;;;5097245;28;20224;-63
2021/04/14 13:27:36;;;;;;;2.47;2.25;;;;;;;;;;5096485;28;20548;-62
2021/04/14 13:30:08;;;;;;;1.52;1.35;;;;;;;;;;5096707;28;20280;-63
2021/04/14 13:32:39;;;;;;;3.70;1.80;;;;;;;;;;5096784;28;20184;-63
2021/04/14 13:35:11;;;;;;;3.17;1.50;;;;;;;;;;5099547;28;20220;-66
2021/04/14 13:37:41;;;;;;;2.10;1.48;;;;;;;;;;5106328;28;20238;-64
2021/04/14 13:40:11;;;;;;;4.28;1.70;;;;;;;;;;5097388;28;20207;-62
2021/04/14 13:42:40;;;;;;;4.47;1.30;;;;;;;;;;5096759;28;20672;-62
2021/04/14 13:45:13;;;;;;;3.75;1.75;;;;;;;;;;5096556;28;20220;-62
2021/04/14 13:47:44;;;;;;;2.10;1.38;;;;;;;;;;5096086;28;20656;-62
2021/04/14 13:50:12;;;;;;;2.05;1.20;;;;;;;;;;5096911;28;20185;-63
2021/04/14 13:52:40;;;;;;;3.58;1.38;;;;;;;;;;5096660;28;20687;-63
2021/04/14 13:55:07;;;;;;;1.90;1.65;;;;;;;;;;5096424;28;20591;-63
2021/04/14 13:57:36;;;;;;;1.73;1.30;;;;;;;;;;5096591;28;20196;-63
2021/04/14 14:00:05;;;;;;;2.30;1.52;;;;;;;;;;5096718;28;20200;-62
2021/04/14 14:02:36;;;;;;;4.78;1.30;;;;;;;;;;5096638;28;20552;-62
2021/04/14 14:05:04;;;;;;;3.90;1.48;;;;;;;;;;5096761;28;20226;-63
2021/04/14 14:07:35;;;;;;;4.15;1.50;;;;;;;;;;5096258;28;20219;-64
2021/04/14 14:10:04;;;;;;;1.70;1.10;;;;;;;;;;5096698;28;20185;-63
2021/04/14 14:12:41;;;;;;;3.30;1.30;;;;;;;;;;5096270;28;20197;-64
2021/04/14 14:15:11;;;;;;;1.83;1.20;;;;;;;;;;5095655;28;20734;-63
2021/04/14 14:17:43;;;;;;;3.50;1.25;;;;;;;;;;5095746;28;20203;-63
2021/04/14 14:20:11;;;;;;;4.35;1.20;;;;;;;;;;5096158;28;20189;-62
2021/04/14 14:22:38;;;;;;;6.60;0.98;;;;;;;;;;5095649;28;20201;-63
2021/04/14 14:25:05;;;;;;;2.30;1.27;;;;;;;;;;5096092;28;20220;-63
2021/04/14 14:27:32;;;;;;;2.35;1.05;;;;;;;;;;5095974;28;20220;-63
2021/04/14 14:29:59;;;;;;;2.45;1.00;;;;;;;;;;5095564;28;20207;-63
2021/04/14 14:32:26;;;;;;;3.30;1.60;;;;;;;;;;5095834;28;20205;-63
2021/04/14 14:34:56;;;;;;;3.63;1.38;;;;;;;;;;5095407;28;20220;-63
2021/04/14 14:37:27;;;;;;;1.20;0.80;;;;;;;;;;5095625;28;20784;-63
2021/04/14 14:39:55;;;;;;;3.80;1.27;;;;;;;;;;5095559;28;20200;-63
2021/04/14 14:42:27;;;;;;;2.13;1.27;;;;;;;;;;5095024;28;20249;-63
2021/04/14 14:44:57;;;;;;;2.17;1.00;;;;;;;;;;5095439;28;20228;-63
2021/04/14 14:47:24;;;;;;;3.00;1.60;;;;;;;;;;5095153;28;20228;-61
2021/04/14 14:49:55;;;;;;;1.65;0.90;;;;;;;;;;5095530;28;20204;-62
2021/04/14 14:52:23;;;;;;;1.48;1.08;;;;;;;;;;5095677;28;20589;-63
2021/04/14 14:54:51;;;;;;;1.45;1.13;;;;;;;;;;5095632;28;20232;-63